Terminal Aerodrome Forecast
Issued by NWS Sterling, VA

Current Version | Previous Version | Graphics & Text | Print | Product List | Glossary On
Versions: 1 2 3 4 5 6 7 8 9 10 11 12 13 14 15 16 17 18 19 20 21
000
FTUS41 KLWX 231100
TAFMRB
TAF
KMRB 231120Z 2312/2412 00000KT 2SM -DZ BR OVC005
     FM231700 07005KT 3SM -DZ BR OVC008
     FM232000 13005KT 3SM -DZ BR OVC008
     FM232300 VRB03KT 3SM BR OVC008
     FM240200 VRB03KT 3SM -RA BR OVC008=

USA.gov is the U.S. government's official web portal to all federal, state and local government web resources and services.